Etusivu
METAR-TAF:

METAR-TAF

Lentoasemat :

Öljynporauslautta

F3-fb-1, Alankomaat

Leveyspiiri: 54-51-14N, Pituuspiiri: 4-41-36E, korkeus merenpinnasta: 33 m

Tämänhetkinen sää

Tämä raportti tehtiin 39 minuuttia sitten, kello 22.55 UTC
Tuuli 8 kn lännestä/lounaasta
Lämpötila 16°C
Kosteus 82%
Ilmanpaine 1022 hPa
Näkyvyys 10 km tai enemmän

METAR: EHFD 172255Z AUTO 24008KT 9999 FEW012/// OVC015/// 16/13 Q1022

Aika: 01:34 (23:34 UTC)


TAF: puuttuu

Säähavainnot ja -ennusteet yli 4000 lentoasemalta (METAR- ja TAF-raportit).

Käytössä olevat sääasemat on merkitty karttaan keltaisilla ja punaisilla pisteillä.

Aseta hiiri pisteen päälle nähdäksesi sääaseman nimen.

Klikkaa sitten nähdäksesi säähavainnot ja -ennusteet.

Kartan vaihtaminen: klikkaa mustalla rastilla varustettuja vihreitä pisteitä, niin voit zoomata sisään; viivalla varustettua vihreää pistettä, niin voit zoomata ulos tai vihreitä nuolia, niin pääset viereisille kartoille.


METAR-TAF: